createdAt,value
2022-08-25T00:01:23.036Z,8.48
2022-08-25T00:03:55.649Z,8.68
2022-08-25T00:06:24.333Z,8.68
2022-08-25T00:08:51.759Z,8.20
2022-08-25T00:11:22.741Z,8.55
2022-08-25T00:13:56.721Z,8.60
2022-08-25T00:16:26.224Z,7.82
2022-08-25T00:18:58.133Z,8.60
2022-08-25T00:21:26.805Z,7.85
2022-08-25T00:23:54.504Z,8.30
2022-08-25T00:26:22.450Z,8.57
2022-08-25T00:28:50.012Z,8.32
2022-08-25T00:31:21.760Z,8.40
2022-08-25T00:33:50.313Z,8.38
2022-08-25T00:36:19.605Z,7.88
2022-08-25T00:38:48.586Z,9.30
2022-08-25T00:41:20.850Z,8.38
2022-08-25T00:43:53.137Z,9.15
2022-08-25T00:46:23.239Z,8.90
2022-08-25T00:48:54.167Z,9.65
2022-08-25T00:51:29.380Z,8.63
2022-08-25T00:53:57.053Z,8.98
2022-08-25T00:56:25.761Z,8.48
2022-08-25T00:58:53.715Z,8.55
2022-08-25T01:01:21.417Z,8.48
2022-08-25T01:03:48.924Z,8.52
2022-08-25T01:06:16.324Z,8.27
2022-08-25T01:08:45.056Z,8.88
2022-08-25T01:11:13.130Z,8.10
2022-08-25T01:13:44.716Z,8.80
2022-08-25T01:16:12.953Z,8.65
2022-08-25T01:18:46.370Z,9.13
2022-08-25T01:21:15.451Z,8.95
2022-08-25T01:23:42.873Z,8.18
2022-08-25T01:26:13.077Z,8.55
2022-08-25T01:29:02.442Z,8.57
2022-08-25T01:31:30.454Z,8.70
2022-08-25T01:33:58.343Z,8.98
2022-08-25T01:36:28.896Z,9.32
2022-08-25T01:38:56.585Z,8.43
2022-08-25T01:41:32.315Z,9.15
2022-08-25T01:43:59.857Z,8.88
2022-08-25T01:46:27.776Z,8.68
2022-08-25T01:48:55.245Z,8.65
2022-08-25T01:51:26.765Z,9.43
2022-08-25T01:53:54.164Z,9.55
2022-08-25T01:56:21.559Z,9.20
2022-08-25T01:58:50.774Z,9.32
2022-08-25T02:01:20.128Z,9.80
2022-08-25T02:03:49.306Z,9.70
2022-08-25T02:06:19.318Z,9.45
2022-08-25T02:08:51.804Z,9.68
2022-08-25T02:11:19.169Z,9.40
2022-08-25T02:13:46.568Z,9.00
2022-08-25T02:16:18.153Z,10.80
2022-08-25T02:18:46.340Z,9.60
2022-08-25T02:21:14.107Z,9.85
2022-08-25T02:23:41.784Z,9.57
2022-08-25T02:26:10.760Z,10.10
2022-08-25T02:28:38.201Z,9.82
2022-08-25T02:31:06.375Z,9.82
2022-08-25T02:33:33.850Z,10.73
2022-08-25T02:36:02.317Z,10.43
2022-08-25T02:38:30.554Z,9.88
2022-08-25T02:40:59.746Z,10.23
2022-08-25T02:43:29.074Z,10.55
2022-08-25T02:45:56.644Z,10.10
2022-08-25T02:48:24.428Z,10.20
2022-08-25T02:50:53.051Z,10.02
2022-08-25T02:53:21.428Z,10.45
2022-08-25T02:55:48.882Z,10.52
2022-08-25T02:58:16.391Z,10.52
2022-08-25T03:00:45.914Z,11.32
2022-08-25T03:03:13.727Z,10.98
2022-08-25T03:05:41.563Z,11.68
2022-08-25T03:08:10.969Z,11.93
2022-08-25T03:10:38.361Z,11.20
2022-08-25T03:13:05.828Z,11.60
2022-08-25T03:15:33.917Z,11.48
2022-08-25T03:18:03.037Z,10.43
2022-08-25T03:20:31.097Z,13.10
2022-08-25T03:22:58.603Z,11.13
2022-08-25T03:25:43.839Z,11.77
2022-08-25T03:28:11.230Z,11.60
2022-08-25T03:30:38.606Z,10.88
2022-08-25T03:33:07.510Z,11.10
2022-08-25T03:35:35.239Z,12.55
2022-08-25T03:38:02.921Z,12.65
2022-08-25T03:40:30.455Z,11.85
2022-08-25T03:42:57.908Z,13.20
2022-08-25T03:45:26.185Z,13.55
2022-08-25T03:47:54.393Z,12.68
2022-08-25T03:50:23.818Z,12.65
2022-08-25T03:52:53.741Z,13.07
2022-08-25T03:55:22.764Z,13.13
2022-08-25T03:57:50.159Z,13.60
2022-08-25T04:00:17.987Z,12.95
2022-08-25T04:02:45.648Z,13.13
2022-08-25T04:05:13.328Z,12.63
2022-08-25T04:07:44.568Z,12.52
2022-08-25T04:10:12.837Z,12.30
2022-08-25T04:12:40.527Z,13.55
2022-08-25T04:15:09.183Z,11.85
2022-08-25T04:17:39.643Z,12.52
2022-08-25T04:20:08.114Z,12.68
2022-08-25T04:22:36.720Z,12.45
2022-08-25T04:25:06.900Z,12.15
2022-08-25T04:27:34.435Z,13.23
2022-08-25T04:30:01.825Z,11.90
2022-08-25T04:32:29.375Z,13.23
2022-08-25T04:34:56.761Z,12.77
2022-08-25T04:37:24.148Z,13.40
2022-08-25T04:39:51.577Z,13.38
2022-08-25T04:42:20.359Z,13.80
2022-08-25T04:44:47.740Z,12.70
2022-08-25T04:47:15.105Z,13.15
2022-08-25T04:49:42.598Z,13.13
2022-08-25T04:52:19.155Z,12.90
2022-08-25T04:54:46.565Z,12.05
2022-08-25T04:57:14.219Z,12.60
2022-08-25T04:59:42.900Z,12.98
2022-08-25T05:02:10.269Z,12.50
2022-08-25T05:04:38.151Z,14.18
2022-08-25T05:07:06.149Z,13.40
2022-08-25T05:09:33.942Z,12.88
2022-08-25T05:12:02.364Z,12.13
2022-08-25T05:14:30.350Z,12.32
2022-08-25T05:16:59.173Z,12.55
2022-08-25T05:19:27.472Z,14.55
2022-08-25T05:21:54.923Z,13.30
2022-08-25T05:24:25.996Z,14.70
2022-08-25T05:26:53.517Z,15.98
2022-08-25T05:29:20.916Z,14.57
2022-08-25T05:31:50.631Z,16.63
2022-08-25T05:34:19.916Z,17.63
2022-08-25T05:36:47.303Z,17.67
2022-08-25T05:39:14.721Z,17.63
2022-08-25T05:41:42.104Z,20.42
2022-08-25T05:44:09.669Z,20.90
2022-08-25T05:46:37.091Z,24.15
2022-08-25T05:49:04.468Z,22.50
2022-08-25T05:51:33.454Z,24.67
2022-08-25T05:54:00.839Z,25.45
2022-08-25T05:56:28.248Z,26.52
2022-08-25T05:58:55.638Z,26.00
2022-08-25T06:01:43.583Z,27.08
2022-08-25T06:04:13.081Z,27.77
2022-08-25T06:06:41.788Z,26.10
2022-08-25T06:09:09.946Z,28.92
2022-08-25T06:11:38.751Z,28.95
2022-08-25T06:14:06.462Z,29.33
2022-08-25T06:16:33.976Z,30.33
2022-08-25T06:19:01.586Z,31.15
2022-08-25T06:21:29.078Z,31.73
2022-08-25T06:23:57.876Z,29.65
2022-08-25T06:26:25.763Z,32.85
2022-08-25T06:28:54.019Z,29.73
2022-08-25T06:31:22.316Z,31.77
2022-08-25T06:33:50.128Z,31.60
2022-08-25T06:36:17.533Z,31.80
2022-08-25T06:38:45.794Z,28.52
2022-08-25T06:41:14.628Z,27.73
2022-08-25T06:43:48.899Z,27.15
2022-08-25T06:46:19.849Z,30.25
2022-08-25T06:48:47.411Z,28.15
2022-08-25T06:51:16.622Z,27.27
2022-08-25T06:53:44.517Z,27.85
2022-08-25T06:56:12.113Z,28.83
2022-08-25T06:58:40.870Z,32.20
2022-08-25T07:01:13.485Z,32.22
2022-08-25T07:03:43.694Z,29.90
2022-08-25T07:06:11.336Z,31.42
2022-08-25T07:08:39.512Z,28.25
2022-08-25T07:11:07.619Z,28.15
2022-08-25T07:13:45.574Z,27.10
2022-08-25T07:16:15.259Z,30.00
2022-08-25T07:18:43.042Z,29.02
2022-08-25T07:21:12.248Z,26.83
2022-08-25T07:23:40.451Z,22.65
2022-08-25T07:26:33.620Z,25.25
2022-08-25T07:29:00.041Z,22.63
2022-08-25T07:31:29.506Z,24.27
2022-08-25T07:34:15.151Z,24.00
2022-08-25T07:36:44.024Z,25.05
2022-08-25T07:39:12.168Z,24.65
2022-08-25T07:41:41.390Z,22.13
2022-08-25T07:44:11.845Z,22.05
2022-08-25T07:46:39.316Z,21.77
2022-08-25T07:49:12.674Z,20.17
2022-08-25T07:52:03.583Z,20.33
2022-08-25T07:54:34.412Z,21.70
2022-08-25T07:57:02.283Z,20.92
2022-08-25T07:59:31.006Z,20.42
2022-08-25T08:02:08.305Z,20.63
2022-08-25T08:04:36.788Z,19.60
2022-08-25T08:07:04.571Z,20.08
2022-08-25T08:09:39.528Z,20.08
2022-08-25T08:12:08.070Z,18.30
2022-08-25T08:14:39.551Z,18.13
2022-08-25T08:17:12.857Z,18.35
2022-08-25T08:19:44.453Z,19.48
2022-08-25T08:22:15.403Z,18.65
2022-08-25T08:24:54.952Z,18.58
2022-08-25T08:27:24.046Z,18.65
2022-08-25T08:29:53.627Z,16.88
2022-08-25T08:32:22.279Z,14.63
2022-08-25T08:34:58.054Z,15.80
2022-08-25T08:37:25.659Z,13.05
2022-08-25T08:39:53.085Z,14.30
2022-08-25T08:42:28.455Z,13.63
2022-08-25T08:45:06.064Z,12.73
2022-08-25T08:47:49.256Z,12.10
2022-08-25T08:50:28.018Z,12.05
2022-08-25T08:53:05.033Z,12.13
2022-08-25T08:55:35.286Z,10.88
2022-08-25T08:58:06.677Z,12.75
2022-08-25T09:00:43.221Z,10.02
2022-08-25T09:03:28.926Z,10.45
2022-08-25T09:06:01.672Z,10.45
2022-08-25T09:08:30.656Z,9.93
2022-08-25T09:11:03.611Z,8.85
2022-08-25T09:13:40.340Z,8.55
2022-08-25T09:16:33.888Z,9.90
2022-08-25T09:19:12.739Z,9.82
2022-08-25T09:21:53.205Z,7.90
2022-08-25T09:24:29.543Z,7.70
2022-08-25T09:27:06.877Z,7.03
2022-08-25T09:29:55.756Z,8.32
2022-08-25T09:32:31.604Z,7.15
2022-08-25T09:35:00.223Z,7.03
2022-08-25T09:37:27.794Z,7.10
2022-08-25T09:39:55.833Z,6.75
2022-08-25T09:42:49.891Z,6.35
2022-08-25T09:45:17.950Z,6.28
2022-08-25T09:47:46.423Z,8.27
2022-08-25T09:50:18.966Z,7.18
2022-08-25T09:52:46.633Z,7.63
2022-08-25T09:55:29.180Z,6.22
2022-08-25T09:58:01.386Z,6.53
2022-08-25T10:00:36.906Z,6.03
2022-08-25T10:03:11.772Z,5.90
2022-08-25T10:05:59.553Z,5.70
2022-08-25T10:08:32.503Z,6.20
2022-08-25T10:13:38.628Z,5.65
2022-08-25T10:16:17.699Z,5.90
2022-08-25T10:19:03.003Z,6.93
2022-08-25T10:21:30.409Z,7.10
2022-08-25T10:23:57.787Z,7.60
2022-08-25T10:26:35.123Z,8.20
2022-08-25T10:29:13.099Z,8.30
2022-08-25T10:31:48.249Z,7.75
2022-08-25T10:34:23.601Z,7.10
2022-08-25T10:36:58.282Z,7.30
2022-08-25T10:39:37.013Z,6.10
2022-08-25T10:42:29.357Z,6.80
2022-08-25T10:45:29.650Z,5.93
2022-08-25T10:48:30.949Z,6.00
2022-08-25T10:51:03.276Z,5.55
2022-08-25T10:53:41.059Z,6.22
2022-08-25T10:56:12.205Z,6.25
2022-08-25T10:59:04.613Z,5.72
2022-08-25T11:01:44.000Z,5.65
2022-08-25T11:04:15.584Z,4.93
2022-08-25T11:06:47.561Z,5.80
2022-08-25T11:09:21.324Z,5.25
2022-08-25T11:11:54.508Z,5.18
2022-08-25T11:14:24.770Z,4.88
2022-08-25T11:16:58.726Z,5.55
2022-08-25T11:19:30.947Z,5.90
2022-08-25T11:22:04.629Z,5.40
2022-08-25T11:24:38.033Z,5.40
2022-08-25T11:27:06.772Z,5.25
2022-08-25T11:29:37.395Z,5.70
2022-08-25T11:32:08.687Z,6.00
2022-08-25T11:34:43.589Z,5.65
2022-08-25T11:37:20.038Z,5.65
2022-08-25T11:40:05.613Z,6.65
2022-08-25T11:42:46.470Z,5.30
2022-08-25T11:45:24.481Z,6.00
2022-08-25T11:48:04.876Z,5.60
2022-08-25T11:50:35.772Z,5.80
2022-08-25T11:53:23.702Z,5.70
2022-08-25T11:55:55.911Z,6.22
2022-08-25T11:58:36.985Z,5.50
2022-08-25T12:01:06.565Z,6.20
2022-08-25T12:03:55.462Z,6.15
2022-08-25T12:06:28.122Z,5.90
2022-08-25T12:09:19.119Z,6.10
2022-08-25T12:11:50.198Z,5.97
2022-08-25T12:14:38.716Z,5.65
2022-08-25T12:17:12.117Z,5.82
2022-08-25T12:19:57.906Z,5.82
2022-08-25T12:22:51.576Z,6.13
2022-08-25T12:25:36.355Z,5.80
2022-08-25T12:28:09.746Z,6.10
2022-08-25T12:30:43.741Z,5.75
2022-08-25T12:33:17.048Z,7.00
2022-08-25T12:35:56.468Z,6.53
2022-08-25T12:38:30.098Z,6.15
2022-08-25T12:41:03.384Z,6.05
2022-08-25T12:43:37.672Z,6.10
2022-08-25T12:46:34.400Z,7.00
2022-08-25T12:49:02.904Z,6.68
2022-08-25T12:51:49.806Z,6.82
2022-08-25T12:54:22.531Z,6.75
2022-08-25T12:56:54.219Z,7.18
2022-08-25T12:59:25.004Z,6.50
2022-08-25T13:02:07.624Z,6.13
2022-08-25T13:05:00.061Z,6.23
2022-08-25T13:07:50.480Z,6.35
2022-08-25T13:10:30.935Z,6.55
2022-08-25T13:13:04.196Z,6.72
2022-08-25T13:15:39.685Z,6.65
2022-08-25T13:18:23.181Z,6.65
2022-08-25T13:20:52.516Z,6.63
2022-08-25T13:23:25.287Z,6.57
2022-08-25T13:25:54.652Z,6.40
2022-08-25T13:28:29.270Z,6.85
2022-08-25T13:30:59.359Z,6.68
2022-08-25T13:33:28.039Z,6.72
2022-08-25T13:36:12.654Z,6.40
2022-08-25T13:38:42.138Z,6.53
2022-08-25T13:41:18.604Z,6.25
2022-08-25T13:43:45.985Z,6.70
2022-08-25T13:46:15.376Z,5.88
2022-08-25T13:48:49.502Z,6.57
2022-08-25T13:51:24.047Z,6.50
2022-08-25T13:54:02.619Z,6.68
2022-08-25T13:56:39.914Z,6.75
2022-08-25T13:59:21.815Z,6.80
2022-08-25T14:01:50.336Z,6.50
2022-08-25T14:04:29.234Z,7.22
2022-08-25T14:07:10.412Z,7.18
2022-08-25T14:09:46.619Z,6.75
2022-08-25T14:12:31.058Z,7.30
2022-08-25T14:15:00.522Z,7.43
2022-08-25T14:17:39.046Z,6.95
2022-08-25T14:20:15.918Z,6.90
2022-08-25T14:22:43.324Z,7.75
2022-08-25T14:25:13.307Z,7.38
2022-08-25T14:28:05.716Z,6.60
2022-08-25T14:30:31.085Z,6.22
2022-08-25T14:32:59.445Z,6.93
2022-08-25T14:35:27.286Z,7.30
2022-08-25T14:37:54.825Z,7.25
2022-08-25T14:40:23.694Z,6.72
2022-08-25T14:42:51.200Z,7.13
2022-08-25T14:45:19.808Z,7.00
2022-08-25T14:47:49.838Z,7.25
2022-08-25T14:50:20.848Z,6.93
2022-08-25T14:52:51.929Z,7.32
2022-08-25T14:55:31.253Z,6.95
2022-08-25T14:58:00.737Z,7.22
2022-08-25T15:00:28.564Z,7.00
2022-08-25T15:02:56.350Z,7.10
2022-08-25T15:05:27.049Z,7.18
2022-08-25T15:08:13.836Z,6.63
2022-08-25T15:10:41.390Z,7.50
2022-08-25T15:13:10.426Z,6.93
2022-08-25T15:15:52.627Z,6.65
2022-08-25T15:18:20.935Z,7.32
2022-08-25T15:20:50.189Z,7.07
2022-08-25T15:23:18.327Z,6.50
2022-08-25T15:25:46.433Z,6.95
2022-08-25T15:28:17.241Z,6.70
2022-08-25T15:30:45.902Z,8.25
2022-08-25T15:33:13.468Z,7.03
2022-08-25T15:35:41.519Z,6.57
2022-08-25T15:38:13.915Z,6.68
2022-08-25T15:40:41.663Z,7.05
2022-08-25T15:43:10.419Z,7.00
2022-08-25T15:45:39.168Z,7.03
2022-08-25T15:48:09.463Z,9.98
2022-08-25T15:50:37.328Z,8.05
2022-08-25T15:53:06.325Z,7.47
2022-08-25T15:55:39.626Z,7.15
2022-08-25T15:58:07.040Z,7.30
2022-08-25T16:00:36.537Z,6.63
2022-08-25T16:03:08.052Z,6.65
2022-08-25T16:05:37.265Z,7.65
2022-08-25T16:08:05.183Z,7.05
2022-08-25T16:10:35.224Z,7.35
2022-08-25T16:13:04.695Z,7.03
2022-08-25T16:15:33.114Z,7.30
2022-08-25T16:18:01.311Z,7.40
2022-08-25T16:20:30.962Z,8.38
2022-08-25T16:23:00.471Z,6.82
2022-08-25T16:25:28.465Z,8.30
2022-08-25T16:27:56.561Z,8.05
2022-08-25T16:30:25.160Z,8.05
2022-08-25T16:32:52.562Z,7.30
2022-08-25T16:35:19.984Z,8.05
2022-08-25T16:37:50.615Z,7.93
2022-08-25T16:40:22.666Z,7.15
2022-08-25T16:42:50.598Z,7.43
2022-08-25T16:45:18.676Z,6.55
2022-08-25T16:47:46.181Z,7.97
2022-08-25T16:50:14.129Z,7.00
2022-08-25T16:52:59.639Z,20.42
2022-08-25T16:55:38.649Z,7.97
2022-08-25T16:58:07.109Z,7.20
2022-08-25T17:00:37.614Z,7.97
2022-08-25T17:03:06.109Z,8.55
2022-08-25T17:05:34.644Z,7.78
2022-08-25T17:08:18.643Z,8.00
2022-08-25T17:10:47.976Z,8.15
2022-08-25T17:13:15.656Z,8.30
2022-08-25T17:15:44.668Z,7.90
2022-08-25T17:18:12.768Z,8.45
2022-08-25T17:20:41.094Z,8.07
2022-08-25T17:23:12.871Z,8.27
2022-08-25T17:25:43.000Z,8.13
2022-08-25T17:28:12.963Z,8.25
2022-08-25T17:30:41.531Z,8.00
2022-08-25T17:33:08.905Z,8.50
2022-08-25T17:35:39.815Z,7.88
2022-08-25T17:38:07.448Z,8.32
2022-08-25T17:40:36.152Z,8.10
2022-08-25T17:43:03.748Z,8.30
2022-08-25T17:45:32.926Z,8.45
2022-08-25T17:48:00.398Z,8.30
2022-08-25T17:50:27.960Z,7.63
2022-08-25T17:52:56.175Z,8.05
2022-08-25T17:55:24.233Z,8.40
2022-08-25T17:57:52.004Z,8.45
2022-08-25T18:00:21.168Z,8.65
2022-08-25T18:02:50.155Z,8.52
2022-08-25T18:05:18.172Z,16.27
2022-08-25T18:07:45.787Z,14.70
2022-08-25T18:10:13.708Z,8.70
2022-08-25T18:12:41.170Z,8.68
2022-08-25T18:15:11.810Z,8.95
2022-08-25T18:17:42.376Z,9.00
2022-08-25T18:20:15.088Z,8.45
2022-08-25T18:29:56.481Z,9.02
2022-08-25T18:32:25.955Z,9.77
2022-08-25T18:34:53.626Z,9.00
2022-08-25T18:37:38.724Z,8.75
2022-08-25T18:40:25.389Z,9.80
2022-08-25T18:42:54.964Z,34.03
2022-08-25T18:45:27.709Z,14.30
2022-08-25T18:47:57.436Z,13.63
2022-08-25T18:50:27.102Z,9.75
2022-08-25T18:52:55.104Z,8.63
2022-08-25T18:55:23.108Z,8.90
2022-08-25T18:57:51.381Z,8.80
2022-08-25T19:00:21.829Z,8.77
2022-08-25T19:02:52.774Z,8.68
2022-08-25T19:05:24.345Z,8.32
2022-08-25T19:07:52.704Z,8.95
2022-08-25T19:10:20.698Z,8.77
2022-08-25T19:12:51.963Z,8.80
2022-08-25T19:15:19.353Z,9.52
2022-08-25T19:17:53.967Z,9.85
2022-08-25T19:20:23.121Z,8.88
2022-08-25T19:22:50.876Z,9.57
2022-08-25T19:25:18.839Z,8.93
2022-08-25T19:27:47.124Z,9.23
2022-08-25T19:30:17.600Z,8.77
2022-08-25T19:32:46.705Z,9.55
2022-08-25T19:35:20.034Z,9.35
2022-08-25T19:37:47.971Z,9.82
2022-08-25T19:40:18.219Z,10.20
2022-08-25T19:42:45.717Z,9.52
2022-08-25T19:45:14.470Z,8.80
2022-08-25T19:47:42.276Z,9.60
2022-08-25T19:50:16.677Z,10.38
2022-08-25T19:52:46.196Z,12.25
2022-08-25T19:55:17.367Z,9.63
2022-08-25T19:57:44.990Z,11.15
2022-08-25T20:00:15.415Z,11.45
2022-08-25T20:02:43.253Z,10.25
2022-08-25T20:05:12.192Z,10.95
2022-08-25T20:07:40.730Z,10.70
2022-08-25T20:10:14.161Z,10.95
2022-08-25T20:12:42.750Z,10.60
2022-08-25T20:15:10.607Z,10.63
2022-08-25T20:17:38.035Z,10.38
2022-08-25T20:20:11.523Z,10.30
2022-08-25T20:22:39.050Z,10.18
2022-08-25T20:25:13.478Z,9.52
2022-08-25T20:27:43.004Z,11.35
2022-08-25T20:30:13.207Z,10.45
2022-08-25T20:32:40.858Z,10.25
2022-08-25T20:35:13.052Z,10.95
2022-08-25T20:37:41.193Z,11.13
2022-08-25T20:40:12.281Z,11.18
2022-08-25T20:42:40.634Z,10.43
2022-08-25T20:45:12.256Z,10.90
2022-08-25T20:47:40.172Z,10.45
2022-08-25T20:50:09.614Z,11.20
2022-08-25T20:52:37.350Z,11.80
2022-08-25T20:55:12.243Z,11.23
2022-08-25T20:57:40.326Z,11.20
2022-08-25T21:00:09.815Z,14.88
2022-08-25T21:02:37.776Z,13.48
2022-08-25T21:05:06.143Z,11.45
2022-08-25T21:07:35.764Z,11.40
2022-08-25T21:10:03.504Z,11.40
2022-08-25T21:12:33.230Z,12.23
2022-08-25T21:15:01.071Z,13.55
2022-08-25T21:17:28.692Z,12.02
2022-08-25T21:19:56.154Z,12.57
2022-08-25T21:22:23.539Z,12.77
2022-08-25T21:24:51.403Z,12.80
2022-08-25T21:27:18.782Z,12.65
2022-08-25T21:29:54.648Z,12.88
2022-08-25T21:32:22.748Z,12.07
2022-08-25T21:34:52.367Z,13.15
2022-08-25T21:37:19.741Z,12.00
2022-08-25T21:39:47.178Z,11.88
2022-08-25T21:42:14.576Z,11.85
2022-08-25T21:44:42.705Z,12.23
2022-08-25T21:47:11.423Z,12.35
2022-08-25T21:49:38.874Z,12.30
2022-08-25T21:52:06.485Z,12.18
2022-08-25T21:54:34.244Z,13.35
2022-08-25T21:57:04.518Z,13.07
2022-08-25T21:59:33.740Z,13.20
2022-08-25T22:02:02.858Z,13.48
2022-08-25T22:04:32.307Z,13.23
2022-08-25T22:07:00.184Z,13.77
2022-08-25T22:09:28.349Z,13.23
2022-08-25T22:11:56.500Z,13.63
2022-08-25T22:14:25.988Z,13.05
2022-08-25T22:16:53.840Z,13.73
2022-08-25T22:19:21.751Z,13.82
2022-08-25T22:21:52.642Z,13.40
2022-08-25T22:24:20.304Z,14.10
2022-08-25T22:26:49.294Z,13.25
2022-08-25T22:29:25.463Z,13.75
2022-08-25T22:31:53.831Z,14.60
2022-08-25T22:34:30.749Z,13.45
2022-08-25T22:37:01.254Z,13.63
2022-08-25T22:39:29.078Z,13.82
2022-08-25T22:41:56.519Z,14.38
2022-08-25T22:44:24.997Z,14.07
2022-08-25T22:46:52.539Z,13.88
2022-08-25T22:49:19.976Z,13.40
2022-08-25T22:51:48.996Z,13.35
2022-08-25T22:54:17.810Z,13.65
2022-08-25T22:56:45.715Z,13.88
2022-08-25T22:59:13.954Z,13.85
2022-08-25T23:01:44.192Z,13.65
2022-08-25T23:04:12.067Z,13.82
2022-08-25T23:06:40.097Z,13.88
2022-08-25T23:09:09.260Z,13.50
2022-08-25T23:11:38.877Z,13.88
2022-08-25T23:14:09.912Z,14.50
2022-08-25T23:16:37.853Z,13.88
2022-08-25T23:19:05.401Z,14.07
2022-08-25T23:21:50.308Z,14.45
2022-08-25T23:24:29.954Z,14.27
2022-08-25T23:27:01.156Z,14.00
2022-08-25T23:29:30.086Z,13.27
2022-08-25T23:31:58.378Z,13.40
2022-08-25T23:34:26.712Z,13.60
2022-08-25T23:36:56.155Z,14.23
2022-08-25T23:39:23.597Z,14.02
2022-08-25T23:41:52.042Z,13.32
2022-08-25T23:44:22.410Z,13.65
2022-08-25T23:46:53.095Z,13.57
2022-08-25T23:49:22.281Z,14.55
2022-08-25T23:51:52.781Z,13.93
2022-08-25T23:54:21.175Z,14.85
2022-08-25T23:56:52.484Z,14.82
2022-08-25T23:59:24.519Z,14.90
